createdAt,value
2023-05-03T00:39:26.325Z,4.20
2023-05-03T00:42:07.886Z,4.43
2023-05-03T00:44:38.739Z,4.80
2023-05-03T00:47:07.748Z,5.13
2023-05-03T00:49:36.460Z,4.40
2023-05-03T00:52:05.301Z,5.13
2023-05-03T00:54:40.336Z,5.57
2023-05-03T00:57:10.863Z,4.50
2023-05-03T00:59:39.810Z,5.00
2023-05-03T01:02:08.566Z,3.83
2023-05-03T01:04:43.169Z,4.00
2023-05-03T01:07:38.613Z,4.67
2023-05-03T01:10:22.015Z,5.00
2023-05-03T01:12:59.208Z,4.00
2023-05-03T01:15:43.485Z,4.77
2023-05-03T01:18:15.545Z,5.00
2023-05-03T01:20:48.018Z,4.83
2023-05-03T01:23:29.325Z,5.00
2023-05-03T01:26:01.022Z,4.90
2023-05-03T01:28:29.316Z,5.00
2023-05-03T01:30:59.958Z,4.07
2023-05-03T01:33:38.306Z,4.20
2023-05-03T01:36:13.983Z,4.83
2023-05-03T01:38:48.003Z,5.10
2023-05-03T01:41:21.185Z,5.10
2023-05-03T01:43:53.282Z,4.40
2023-05-03T01:46:21.326Z,4.53
2023-05-03T01:48:49.879Z,5.27
2023-05-03T01:51:17.882Z,5.20
2023-05-03T01:53:46.367Z,5.30
2023-05-03T01:56:17.133Z,5.17
2023-05-03T01:58:45.386Z,5.27
2023-05-03T02:01:16.677Z,5.53
2023-05-03T02:03:44.849Z,4.40
2023-05-03T02:06:12.890Z,6.03
2023-05-03T02:08:44.020Z,4.80
2023-05-03T02:11:12.261Z,5.60
2023-05-03T02:13:42.515Z,5.17
2023-05-03T02:16:10.663Z,4.93
2023-05-03T02:18:39.001Z,4.90
2023-05-03T02:21:08.264Z,6.30
2023-05-03T02:23:38.701Z,5.63
2023-05-03T02:26:06.832Z,6.07
2023-05-03T02:28:37.066Z,4.50
2023-05-03T02:31:09.560Z,4.90
2023-05-03T02:33:41.666Z,4.50
2023-05-03T02:36:17.239Z,4.57
2023-05-03T02:38:48.308Z,5.47
2023-05-03T02:41:24.698Z,4.67
2023-05-03T02:43:53.215Z,5.50
2023-05-03T02:46:24.074Z,5.80
2023-05-03T02:48:52.448Z,4.57
2023-05-03T02:51:20.846Z,5.00
2023-05-03T02:53:51.797Z,4.90
2023-05-03T02:56:19.796Z,4.93
2023-05-03T02:58:48.785Z,5.70
2023-05-03T03:01:17.614Z,5.40
2023-05-03T03:03:48.115Z,5.33
2023-05-03T03:06:24.924Z,6.17
2023-05-03T03:08:55.501Z,6.10
2023-05-03T03:11:23.974Z,4.50
2023-05-03T03:13:52.529Z,5.67
2023-05-03T03:16:22.218Z,5.57
2023-05-03T03:18:57.252Z,6.47
2023-05-03T03:21:25.958Z,5.93
2023-05-03T03:23:55.352Z,4.90
2023-05-03T03:26:26.565Z,5.13
2023-05-03T03:28:57.167Z,4.30
2023-05-03T03:31:31.325Z,4.70
2023-05-03T03:34:00.998Z,4.33
2023-05-03T03:36:31.829Z,4.37
2023-05-03T03:39:07.200Z,4.63
2023-05-03T03:41:37.996Z,4.47
2023-05-03T03:44:07.049Z,4.63
2023-05-03T03:46:42.368Z,4.90
2023-05-03T03:49:15.064Z,4.70
2023-05-03T03:51:45.972Z,4.10
2023-05-03T03:54:22.654Z,4.03
2023-05-03T03:57:06.996Z,4.80
2023-05-03T03:59:35.921Z,4.60
2023-05-03T04:02:06.706Z,5.70
2023-05-03T04:04:37.866Z,5.53
2023-05-03T04:07:06.577Z,6.33
2023-05-03T04:09:37.990Z,5.90
2023-05-03T04:12:09.302Z,5.27
2023-05-03T04:14:39.880Z,5.57
2023-05-03T04:17:10.640Z,5.60
2023-05-03T04:19:40.427Z,5.60
2023-05-03T04:22:09.022Z,6.03
2023-05-03T04:24:40.019Z,5.70
2023-05-03T04:27:10.365Z,5.30
2023-05-03T04:29:40.437Z,5.37
2023-05-03T04:32:14.743Z,5.80
2023-05-03T04:34:48.999Z,5.40
2023-05-03T04:37:18.781Z,5.53
2023-05-03T04:39:48.551Z,5.10
2023-05-03T04:42:19.512Z,4.87
2023-05-03T04:44:48.749Z,5.40
2023-05-03T04:47:20.253Z,5.43
2023-05-03T04:49:50.336Z,5.40
2023-05-03T04:52:18.546Z,5.47
2023-05-03T04:54:50.192Z,7.53
2023-05-03T04:57:18.467Z,6.00
2023-05-03T04:59:50.248Z,5.40
2023-05-03T05:02:23.665Z,5.50
2023-05-03T05:04:55.492Z,7.20
2023-05-03T05:07:24.337Z,5.70
2023-05-03T05:09:52.399Z,5.10
2023-05-03T05:12:22.657Z,5.60
2023-05-03T05:14:50.892Z,5.20
2023-05-03T05:17:19.916Z,6.67
2023-05-03T05:19:50.517Z,5.27
2023-05-03T05:22:25.949Z,6.10
2023-05-03T05:24:58.507Z,5.60
2023-05-03T05:27:28.249Z,5.40
2023-05-03T05:29:57.969Z,5.60
2023-05-03T05:32:26.863Z,7.20
2023-05-03T05:34:56.808Z,6.60
2023-05-03T05:37:34.270Z,6.27
2023-05-03T05:40:10.393Z,6.30
2023-05-03T05:42:46.081Z,5.70
2023-05-03T05:45:14.938Z,5.80
2023-05-03T05:47:47.226Z,7.33
2023-05-03T05:50:19.105Z,6.00
2023-05-03T05:52:58.731Z,5.93
2023-05-03T05:55:30.672Z,6.20
2023-05-03T05:58:02.044Z,5.93
2023-05-03T06:00:40.314Z,6.43
2023-05-03T06:03:08.963Z,6.43
2023-05-03T06:05:37.120Z,7.50
2023-05-03T06:08:06.875Z,6.00
2023-05-03T06:10:37.191Z,7.57
2023-05-03T06:13:09.054Z,5.70
2023-05-03T06:15:42.201Z,6.87
2023-05-03T06:18:11.451Z,6.07
2023-05-03T06:20:39.634Z,6.33
2023-05-03T06:23:11.894Z,7.03
2023-05-03T06:25:42.933Z,6.53
2023-05-03T06:28:13.233Z,6.30
2023-05-03T06:30:41.497Z,7.17
2023-05-03T06:33:16.848Z,5.60
2023-05-03T06:35:48.221Z,7.27
2023-05-03T06:38:19.631Z,5.97
2023-05-03T06:40:50.652Z,6.80
2023-05-03T06:43:44.153Z,6.17
2023-05-03T06:46:13.999Z,6.37
2023-05-03T06:48:49.653Z,6.43
2023-05-03T06:51:18.094Z,6.47
2023-05-03T06:53:47.444Z,6.10
2023-05-03T06:56:16.453Z,6.60
2023-05-03T06:58:44.485Z,5.83
2023-05-03T07:01:13.528Z,5.60
2023-05-03T07:03:44.183Z,5.17
2023-05-03T07:06:13.251Z,6.10
2023-05-03T07:08:42.138Z,6.00
2023-05-03T07:11:11.859Z,5.87
2023-05-03T07:13:43.557Z,5.97
2023-05-03T07:16:11.682Z,5.20
2023-05-03T07:18:39.789Z,4.97
2023-05-03T07:21:09.425Z,4.77
2023-05-03T07:23:38.865Z,5.20
2023-05-03T07:26:06.987Z,4.13
2023-05-03T07:28:39.381Z,5.47
2023-05-03T07:31:07.487Z,5.53
2023-05-03T07:33:37.265Z,4.60
2023-05-03T07:36:06.652Z,5.30
2023-05-03T07:38:36.936Z,4.67
2023-05-03T07:41:08.797Z,4.20
2023-05-03T07:43:38.852Z,5.10
2023-05-03T07:46:10.642Z,4.70
2023-05-03T07:48:38.675Z,4.97
2023-05-03T07:51:09.232Z,4.60
2023-05-03T07:53:40.503Z,4.53
2023-05-03T07:56:11.677Z,5.60
2023-05-03T07:58:42.572Z,4.70
2023-05-03T08:01:11.726Z,4.60
2023-05-03T08:03:41.243Z,5.00
2023-05-03T08:06:09.485Z,4.70
2023-05-03T08:08:38.195Z,4.07
2023-05-03T08:11:12.071Z,4.57
2023-05-03T08:13:46.689Z,4.03
2023-05-03T08:16:23.368Z,4.07
2023-05-03T08:18:51.602Z,3.57
2023-05-03T08:21:20.087Z,2.50
2023-05-03T08:23:49.014Z,2.97
2023-05-03T08:26:22.454Z,2.90
2023-05-03T08:28:52.289Z,3.40
2023-05-03T08:31:21.125Z,3.60
2023-05-03T08:33:51.690Z,3.67
2023-05-03T08:36:20.519Z,3.33
2023-05-03T08:38:50.421Z,3.37
2023-05-03T08:41:24.649Z,3.50
2023-05-03T08:43:55.425Z,3.20
2023-05-03T08:46:25.641Z,3.67
2023-05-03T08:48:54.654Z,3.67
2023-05-03T08:51:24.900Z,3.27
2023-05-03T08:53:53.023Z,3.43
2023-05-03T08:56:26.700Z,3.30
2023-05-03T08:58:57.575Z,3.40
2023-05-03T09:01:26.548Z,3.50
2023-05-03T09:03:55.286Z,2.77
2023-05-03T09:06:25.859Z,2.50
2023-05-03T09:08:55.198Z,3.17
2023-05-03T09:11:24.982Z,2.53
2023-05-03T09:13:53.838Z,2.70
2023-05-03T09:16:29.898Z,2.80
2023-05-03T09:18:59.227Z,3.00
2023-05-03T09:21:28.389Z,3.20
2023-05-03T09:23:56.528Z,2.97
2023-05-03T09:26:38.814Z,3.00
2023-05-03T09:29:06.784Z,2.60
2023-05-03T09:31:43.143Z,2.67
2023-05-03T09:34:23.044Z,2.60
2023-05-03T09:36:51.970Z,2.70
2023-05-03T09:39:20.846Z,3.03
2023-05-03T09:41:58.758Z,2.37
2023-05-03T09:44:49.756Z,2.40
2023-05-03T09:47:20.070Z,2.73
2023-05-03T09:49:50.819Z,2.80
2023-05-03T09:52:20.882Z,2.00
2023-05-03T09:54:53.639Z,2.30
2023-05-03T09:57:22.383Z,2.17
2023-05-03T09:59:50.794Z,2.53
2023-05-03T10:02:24.142Z,3.03
2023-05-03T10:04:57.370Z,2.70
2023-05-03T10:07:30.033Z,2.60
2023-05-03T10:09:59.506Z,2.57
2023-05-03T10:12:31.023Z,2.07
2023-05-03T10:15:04.789Z,2.80
2023-05-03T10:20:19.002Z,2.40
2023-05-03T10:23:09.853Z,2.33
2023-05-03T10:25:40.196Z,2.37
2023-05-03T10:28:10.000Z,2.57
2023-05-03T10:30:40.087Z,2.97
2023-05-03T10:33:35.684Z,2.27
2023-05-03T10:36:14.734Z,2.43
2023-05-03T10:38:44.062Z,2.20
2023-05-03T10:43:58.423Z,2.83
2023-05-03T10:46:37.283Z,3.10
2023-05-03T10:49:23.929Z,2.90
2023-05-03T10:51:52.457Z,2.77
2023-05-03T10:54:20.639Z,2.43
2023-05-03T10:56:55.157Z,2.10
2023-05-03T10:59:24.176Z,2.77
2023-05-03T11:01:54.094Z,2.87
2023-05-03T11:04:33.359Z,2.87
2023-05-03T11:07:02.924Z,2.63
2023-05-03T11:09:35.506Z,2.60
2023-05-03T11:12:08.934Z,3.10
2023-05-03T11:14:37.275Z,3.50
2023-05-03T11:17:05.794Z,2.83
2023-05-03T11:19:37.887Z,2.43
2023-05-03T11:22:09.658Z,2.70
2023-05-03T11:24:37.734Z,2.53
2023-05-03T11:27:08.715Z,3.03
2023-05-03T11:29:38.033Z,3.43
2023-05-03T11:32:09.337Z,3.30
2023-05-03T11:34:40.748Z,2.73
2023-05-03T11:37:09.917Z,3.20
2023-05-03T11:39:39.522Z,2.80
2023-05-03T11:42:08.278Z,3.00
2023-05-03T11:44:39.782Z,3.40
2023-05-03T11:47:09.643Z,2.30
2023-05-03T11:50:06.963Z,2.20
2023-05-03T11:52:38.482Z,3.37
2023-05-03T11:55:09.179Z,2.67
2023-05-03T11:57:40.619Z,2.83
2023-05-03T12:00:17.421Z,2.77
2023-05-03T12:02:48.880Z,2.93
2023-05-03T12:05:23.774Z,3.20
2023-05-03T12:07:57.867Z,2.37
2023-05-03T12:10:33.543Z,2.57
2023-05-03T12:13:05.083Z,3.07
2023-05-03T12:15:37.489Z,2.30
2023-05-03T12:18:09.355Z,2.83
2023-05-03T12:23:15.401Z,2.43
2023-05-03T12:25:49.006Z,3.00
2023-05-03T12:28:23.281Z,3.53
2023-05-03T12:30:53.400Z,3.53
2023-05-03T12:33:22.833Z,2.60
2023-05-03T12:35:54.411Z,2.37
2023-05-03T12:38:24.289Z,3.20
2023-05-03T12:40:55.745Z,2.90
2023-05-03T12:43:24.803Z,3.40
2023-05-03T12:46:16.594Z,2.73
2023-05-03T12:48:45.952Z,2.73
2023-05-03T12:51:21.345Z,2.90
2023-05-03T12:53:55.558Z,1.93
2023-05-03T12:56:25.275Z,2.90
2023-05-03T12:59:15.029Z,3.20
2023-05-03T13:04:43.686Z,4.07
2023-05-03T13:07:17.111Z,3.53
2023-05-03T13:12:22.057Z,3.30
2023-05-03T13:14:50.763Z,2.70
2023-05-03T13:17:20.409Z,3.43
2023-05-03T13:19:48.738Z,3.20
2023-05-03T13:22:20.860Z,3.10
2023-05-03T13:24:50.321Z,3.13
2023-05-03T13:27:19.078Z,3.10
2023-05-03T13:29:49.375Z,2.80
2023-05-03T13:32:18.033Z,2.73
2023-05-03T13:34:46.662Z,2.90
2023-05-03T13:37:19.077Z,3.60
2023-05-03T13:39:52.363Z,3.70
2023-05-03T13:42:20.715Z,2.90
2023-05-03T13:44:49.633Z,3.60
2023-05-03T13:47:19.760Z,3.73
2023-05-03T13:49:51.552Z,3.37
2023-05-03T13:52:22.063Z,3.30
2023-05-03T13:54:52.619Z,3.80
2023-05-03T13:57:21.389Z,4.90
2023-05-03T13:59:51.344Z,3.10
2023-05-03T14:02:19.415Z,2.83
2023-05-03T14:04:50.838Z,4.20
2023-05-03T14:07:18.871Z,3.90
2023-05-03T14:09:47.779Z,3.50
2023-05-03T14:12:19.554Z,4.50
2023-05-03T14:14:48.327Z,3.93
2023-05-03T14:17:16.955Z,3.70
2023-05-03T14:19:46.068Z,3.87
2023-05-03T14:22:14.081Z,3.60
2023-05-03T14:24:42.536Z,3.70
2023-05-03T14:27:14.581Z,3.77
2023-05-03T14:29:46.002Z,3.83
2023-05-03T14:32:15.480Z,3.87
2023-05-03T14:34:45.879Z,4.00
2023-05-03T14:37:17.231Z,3.23
2023-05-03T14:39:45.457Z,3.77
2023-05-03T14:42:41.445Z,3.80
2023-05-03T14:45:16.764Z,3.97
2023-05-03T14:47:45.928Z,3.37
2023-05-03T14:50:14.164Z,3.10
2023-05-03T14:52:47.897Z,3.73
2023-05-03T14:55:18.775Z,3.97
2023-05-03T14:57:47.297Z,3.67
2023-05-03T15:00:18.353Z,3.90
2023-05-03T15:02:49.580Z,3.63
2023-05-03T15:05:20.186Z,4.40
2023-05-03T15:07:52.089Z,4.27
2023-05-03T15:10:20.242Z,3.63
2023-05-03T15:12:49.516Z,4.20
2023-05-03T15:15:18.957Z,4.23
2023-05-03T15:17:47.886Z,3.60
2023-05-03T15:20:19.181Z,4.50
2023-05-03T15:22:47.637Z,3.00
2023-05-03T15:25:15.689Z,3.13
2023-05-03T15:27:43.745Z,3.63
2023-05-03T15:30:14.705Z,3.60
2023-05-03T15:32:46.610Z,3.80
2023-05-03T15:35:14.913Z,3.40
2023-05-03T15:37:46.650Z,3.00
2023-05-03T15:40:26.002Z,3.50
2023-05-03T15:42:55.721Z,3.10
2023-05-03T15:45:26.012Z,3.00
2023-05-03T15:50:41.902Z,3.83
2023-05-03T15:53:10.436Z,4.50
2023-05-03T15:55:44.534Z,4.03
2023-05-03T15:58:15.478Z,3.40
2023-05-03T16:00:46.214Z,4.47
2023-05-03T16:03:16.137Z,5.17
2023-05-03T16:05:45.305Z,4.00
2023-05-03T16:08:13.834Z,3.40
2023-05-03T16:10:42.740Z,3.77
2023-05-03T16:13:12.064Z,3.70
2023-05-03T16:15:50.254Z,3.67
2023-05-03T16:18:20.625Z,3.97
2023-05-03T16:20:49.730Z,4.37
2023-05-03T16:23:22.399Z,3.20
2023-05-03T16:25:53.624Z,3.70
2023-05-03T16:28:23.906Z,3.37
2023-05-03T16:30:52.453Z,4.10
2023-05-03T16:33:22.622Z,3.50
2023-05-03T16:35:50.821Z,3.70
2023-05-03T16:38:22.319Z,3.50
2023-05-03T16:40:50.316Z,3.00
2023-05-03T16:43:18.782Z,3.63
2023-05-03T16:45:55.789Z,3.33
2023-05-03T16:48:26.154Z,3.20
2023-05-03T16:50:55.063Z,3.57
2023-05-03T16:53:23.129Z,4.03
2023-05-03T16:55:54.284Z,4.00
2023-05-03T16:58:24.755Z,3.43
2023-05-03T17:00:53.305Z,3.93
2023-05-03T17:03:21.658Z,4.27
2023-05-03T17:05:51.651Z,4.50
2023-05-03T17:08:19.626Z,4.17
2023-05-03T17:10:48.105Z,4.30
2023-05-03T17:13:17.670Z,4.10
2023-05-03T17:15:45.795Z,3.63
2023-05-03T17:18:13.899Z,2.77
2023-05-03T17:20:47.698Z,3.13
2023-05-03T17:23:19.250Z,4.63
2023-05-03T17:25:49.519Z,4.23
2023-05-03T17:28:17.501Z,3.30
2023-05-03T17:30:46.780Z,3.10
2023-05-03T17:33:15.336Z,3.27
2023-05-03T17:35:43.704Z,3.27
2023-05-03T17:38:15.292Z,3.80
2023-05-03T17:40:45.868Z,3.37
2023-05-03T17:43:16.834Z,3.67
2023-05-03T17:45:46.116Z,3.07
2023-05-03T17:48:17.112Z,3.37
2023-05-03T17:50:46.578Z,2.70
2023-05-03T17:53:18.464Z,3.30
2023-05-03T17:55:51.076Z,3.67
2023-05-03T17:58:19.510Z,3.30
2023-05-03T18:00:48.623Z,2.87
2023-05-03T18:03:19.757Z,3.20
2023-05-03T18:05:49.115Z,2.90
2023-05-03T18:08:32.222Z,2.73
2023-05-03T18:11:02.332Z,3.10
2023-05-03T18:13:30.844Z,3.23
2023-05-03T18:16:08.975Z,2.53
2023-05-03T18:18:38.870Z,3.10
2023-05-03T18:21:07.469Z,2.77
2023-05-03T18:23:36.945Z,3.83
2023-05-03T18:26:07.617Z,2.97
2023-05-03T18:28:37.628Z,3.03
2023-05-03T18:31:05.794Z,3.13
2023-05-03T18:33:34.545Z,3.17
2023-05-03T18:36:04.668Z,3.00
2023-05-03T18:38:32.772Z,3.40
2023-05-03T18:41:03.053Z,2.50
2023-05-03T18:43:38.119Z,2.80
2023-05-03T18:46:07.022Z,3.30
2023-05-03T18:48:38.027Z,2.73
2023-05-03T18:51:07.294Z,3.20
2023-05-03T18:53:36.056Z,3.27
2023-05-03T18:56:06.918Z,3.40
2023-05-03T18:58:36.345Z,3.00
2023-05-03T19:01:07.523Z,2.63
2023-05-03T19:03:38.187Z,2.90
2023-05-03T19:06:07.904Z,2.53
2023-05-03T19:08:36.809Z,3.27
2023-05-03T19:11:09.628Z,3.43
2023-05-03T19:13:40.075Z,3.57
2023-05-03T19:16:08.373Z,3.13
2023-05-03T19:18:37.483Z,3.03
2023-05-03T19:21:06.590Z,3.47
2023-05-03T19:23:34.804Z,3.67
2023-05-03T19:26:03.077Z,3.33
2023-05-03T19:28:31.562Z,3.50
2023-05-03T19:31:04.016Z,3.33
2023-05-03T19:33:32.216Z,3.27
2023-05-03T19:36:06.871Z,3.60
2023-05-03T19:38:39.965Z,3.20
2023-05-03T19:41:11.892Z,3.70
2023-05-03T19:43:40.539Z,3.23
2023-05-03T19:46:10.534Z,3.10
2023-05-03T19:48:40.512Z,3.30
2023-05-03T19:51:14.507Z,3.40
2023-05-03T19:53:45.567Z,2.77
2023-05-03T19:56:18.014Z,3.80
2023-05-03T19:58:47.109Z,3.80
2023-05-03T20:01:16.783Z,3.30
2023-05-03T20:03:45.196Z,3.00
2023-05-03T20:06:16.792Z,3.20
2023-05-03T20:08:51.024Z,3.87
2023-05-03T20:11:20.933Z,4.10
2023-05-03T20:13:49.076Z,4.00
2023-05-03T20:16:21.939Z,5.07
2023-05-03T20:18:50.805Z,4.33
2023-05-03T20:21:19.020Z,5.10
2023-05-03T20:23:49.088Z,5.60
2023-05-03T20:26:19.617Z,4.73
2023-05-03T20:28:47.815Z,4.00
2023-05-03T20:31:16.101Z,4.10
2023-05-03T20:33:46.592Z,4.77
2023-05-03T20:36:14.954Z,4.97
2023-05-03T20:38:43.030Z,4.83
2023-05-03T20:41:11.836Z,5.00
2023-05-03T20:43:39.926Z,4.33
2023-05-03T20:46:08.681Z,5.03
2023-05-03T20:48:37.123Z,5.20
2023-05-03T20:51:09.181Z,5.30
2023-05-03T20:53:37.676Z,4.50
2023-05-03T20:56:12.378Z,4.53
2023-05-03T20:58:41.504Z,5.20
2023-05-03T21:01:09.572Z,5.50
2023-05-03T21:03:38.051Z,5.20
2023-05-03T21:06:08.226Z,4.60
2023-05-03T21:08:46.652Z,5.43
2023-05-03T21:11:15.397Z,4.67
2023-05-03T21:13:44.024Z,4.23
2023-05-03T21:18:57.904Z,4.03
2023-05-03T21:21:31.023Z,4.80
2023-05-03T21:24:00.129Z,4.60
2023-05-03T21:26:28.975Z,4.83
2023-05-03T21:28:57.642Z,4.03
2023-05-03T21:31:26.481Z,3.90
2023-05-03T21:33:57.036Z,4.90
2023-05-03T21:36:25.918Z,4.10
2023-05-03T21:38:55.325Z,3.90
2023-05-03T21:41:23.482Z,4.00
2023-05-03T21:43:51.923Z,4.07
2023-05-03T21:46:23.155Z,5.17
2023-05-03T21:48:51.929Z,4.40
2023-05-03T21:51:21.479Z,4.47
2023-05-03T21:53:49.948Z,4.90
2023-05-03T21:56:22.722Z,4.00
2023-05-03T21:58:50.727Z,3.90
2023-05-03T22:01:20.473Z,4.10
2023-05-03T22:03:49.446Z,4.20
2023-05-03T22:06:17.710Z,4.70
2023-05-03T22:08:46.715Z,3.30
2023-05-03T22:11:14.905Z,3.80
2023-05-03T22:14:03.230Z,3.80
2023-05-03T22:16:34.246Z,3.83
2023-05-03T22:19:02.934Z,4.53
2023-05-03T22:21:33.462Z,4.93
2023-05-03T22:24:08.372Z,4.20
2023-05-03T22:26:37.237Z,4.37
2023-05-03T22:29:10.757Z,4.43
2023-05-03T22:31:40.185Z,3.67
2023-05-03T22:34:09.255Z,5.23
2023-05-03T22:36:37.211Z,4.30
2023-05-03T22:39:06.251Z,4.57
2023-05-03T22:41:36.062Z,4.63
2023-05-03T22:44:06.570Z,3.63
2023-05-03T22:46:34.956Z,3.80
2023-05-03T22:49:03.194Z,3.60
2023-05-03T22:51:33.120Z,3.90
2023-05-03T22:54:04.010Z,3.30
2023-05-03T22:56:32.278Z,3.73
2023-05-03T22:59:00.365Z,4.00
2023-05-03T23:01:29.916Z,3.80
2023-05-03T23:04:00.144Z,4.17
2023-05-03T23:06:29.809Z,4.67
2023-05-03T23:08:58.416Z,3.83
2023-05-03T23:11:26.575Z,3.80
2023-05-03T23:13:57.315Z,3.80
2023-05-03T23:16:25.687Z,3.87
2023-05-03T23:18:56.698Z,3.60
2023-05-03T23:21:28.343Z,4.23
2023-05-03T23:23:58.951Z,4.20
2023-05-03T23:26:28.343Z,3.87
2023-05-03T23:28:57.532Z,3.87
2023-05-03T23:31:31.245Z,4.33
2023-05-03T23:34:02.568Z,4.70
2023-05-03T23:36:33.975Z,4.17
2023-05-03T23:39:03.269Z,4.50
2023-05-03T23:41:31.510Z,4.60
2023-05-03T23:44:02.166Z,4.57
2023-05-03T23:46:31.167Z,4.50
2023-05-03T23:48:59.212Z,4.73
2023-05-03T23:51:32.305Z,4.80
2023-05-03T23:54:00.328Z,3.60
2023-05-03T23:56:28.944Z,4.83
2023-05-03T23:58:57.436Z,4.70
